Whittemore, Iowa
Current Conditions -  °F | °C
As of 12:55 AM on Friday 19 Dec 2014 (Local Time) from KAXA Reporting Station
Overcast Overcast  
Wind Chill: 19°   Ceiling: 2200
Heat Index: 27°   Visibility: 10mi
Dew Point: 23°   Wind: 7mph
Humidity: 86%   Direction: 170°S
Pressure: 30.24"   Gusts: NA
Location:  43.06°N, 94.43°W
Report Text: KAXA 190655Z AUTO 17006KT 10SM BKN022 BKN027 OVC070 M03/M05 A3024 RMK AO2
Loading
Personal Weather Stations






























Interactive Weather Map New forecast layout! Learn more

10-Day Weather Forecast

Advertisements
Track Severe Weather on mobile